Time;durP1;ratioP1;P1;durP2;ratioP2;P2;SDS_P1;SDS_P2;PMS_P1;PMS_P2;Temp;Humidity;BMP_temperature;BMP_pressure;BME280_temperature;BME280_humidity;BME280_pressure;Samples;Min_cycle;Max_cycle;Signal;HPM_P1;HPM_P2
2023/10/10 00:01:02;;;;;;;;;17.33;16.67;;;;;21.52;54.59;101423.50;6126051;23;46272;-84
2023/10/10 00:03:31;;;;;;;;;21.33;17.00;;;;;21.48;55.11;101418.22;6153334;23;45486;-84
2023/10/10 00:05:59;;;;;;;;;14.67;14.67;;;;;21.53;55.21;101424.41;6161323;23;45266;-84
2023/10/10 00:08:33;;;;;;;;;19.00;16.00;;;;;21.43;55.02;101420.09;6159781;23;45414;-84
2023/10/10 00:10:59;;;;;;;;;17.67;15.00;;;;;21.36;55.50;101419.31;6186190;23;45509;-84
2023/10/10 00:13:26;;;;;;;;;13.67;13.67;;;;;21.33;55.38;101417.56;6157023;23;45774;-84
2023/10/10 00:15:55;;;;;;;;;11.33;11.33;;;;;21.30;55.42;101422.13;6185979;23;45454;-84
2023/10/10 00:18:21;;;;;;;;;16.33;16.33;;;;;21.32;55.75;101423.88;6187461;23;45251;-84
2023/10/10 00:21:06;;;;;;;;;19.00;18.00;;;;;21.27;56.05;101423.09;6186926;23;45307;-84
2023/10/10 00:23:47;;;;;;;;;20.67;17.00;;;;;21.35;56.25;101428.38;6183574;23;45312;-84
2023/10/10 00:26:14;;;;;;;;;16.33;15.00;;;;;21.14;56.48;101432.34;6160748;23;45367;-83
2023/10/10 00:28:42;;;;;;;;;16.33;16.33;;;;;21.08;56.61;101430.66;6186508;23;45326;-83
2023/10/10 00:31:12;;;;;;;;;17.00;15.00;;;;;21.10;56.61;101436.03;6158398;23;47403;-83
2023/10/10 00:33:38;;;;;;;;;17.00;17.00;;;;;21.00;56.49;101426.31;6187929;23;45439;-83
2023/10/10 00:36:20;;;;;;;;;16.33;14.00;;;;;21.19;56.84;101430.47;6187181;23;45368;-82
2023/10/10 00:38:55;;;;;;;;;17.33;17.33;;;;;21.01;56.97;101425.41;6188502;23;45483;-83
2023/10/10 00:41:26;;;;;;;;;16.00;16.00;;;;;20.97;57.24;101420.03;6186430;23;47958;-83
2023/10/10 00:43:53;;;;;;;;;19.33;16.33;;;;;21.08;57.34;101421.66;6163477;23;45309;-83
2023/10/10 00:46:24;;;;;;;;;17.33;15.00;;;;;20.94;57.08;101425.47;6162457;23;45292;-83
2023/10/10 00:48:58;;;;;;;;;17.67;17.33;;;;;20.93;57.17;101429.13;6154300;23;45320;-84
2023/10/10 00:51:29;;;;;;;;;17.33;17.00;;;;;20.97;57.48;101425.44;6152615;23;46828;-83
2023/10/10 00:54:12;;;;;;;;;14.33;14.00;;;;;20.85;57.17;101419.38;6185724;23;45508;-84
2023/10/10 00:56:43;;;;;;;;;18.33;16.00;;;;;20.88;57.88;101424.72;6183860;23;45368;-83
2023/10/10 00:59:09;;;;;;;;;13.33;12.67;;;;;20.82;57.99;101414.00;6183657;23;45466;-84
2023/10/10 01:01:40;;;;;;;;;17.00;15.00;;;;;20.91;57.78;101406.63;6159388;23;47553;-84
2023/10/10 01:04:08;;;;;;;;;15.00;15.00;;;;;20.82;58.06;101408.59;6160183;23;45393;-84
2023/10/10 01:06:39;;;;;;;;;15.67;15.00;;;;;20.77;58.08;101416.81;6160291;23;45343;-84
2023/10/10 01:09:20;;;;;;;;;19.00;15.00;;;;;20.75;58.25;101413.22;6188057;22;45469;-84
2023/10/10 01:11:49;;;;;;;;;17.33;13.67;;;;;20.78;58.16;101407.75;6160138;23;47173;-84
2023/10/10 01:14:18;;;;;;;;;12.67;12.67;;;;;20.71;58.39;101398.00;6187100;23;45437;-84
2023/10/10 01:16:47;;;;;;;;;14.33;14.33;;;;;20.88;58.05;101403.09;6160203;23;45338;-83
2023/10/10 01:19:18;;;;;;;;;15.33;13.33;;;;;20.91;58.02;101398.50;6159559;23;45282;-82
2023/10/10 01:21:50;;;;;;;;;13.33;12.67;;;;;20.73;57.87;101404.25;6186140;23;45946;-83
2023/10/10 01:24:21;;;;;;;;;15.67;15.33;;;;;20.75;58.31;101402.41;6170092;23;45913;-82
2023/10/10 01:26:50;;;;;;;;;14.00;11.00;;;;;20.77;57.65;101406.00;6128012;23;45464;-83
2023/10/10 01:31:53;;;;;;;;;10.33;10.33;;;;;20.81;57.55;101405.00;6156289;23;45392;-83
2023/10/10 01:37:28;;;;;;;;;12.00;12.00;;;;;21.02;57.45;101395.59;6090972;23;45473;-83
2023/10/10 01:40:17;;;;;;;;;12.33;11.00;;;;;20.77;57.83;101392.47;6097075;23;45462;-83
2023/10/10 01:43:27;;;;;;;;;11.67;9.67;;;;;20.75;57.82;101386.19;6094768;23;47286;-83
2023/10/10 01:45:37;;;;;;;;;16.00;14.00;;;;;20.75;58.08;101392.50;6092989;23;45288;-83
2023/10/10 01:48:11;;;;;;;;;16.33;14.33;;;;;20.66;58.12;101379.13;6092171;23;45375;-83
2023/10/10 01:50:37;;;;;;;;;11.33;10.00;;;;;20.69;58.46;101380.91;6091538;23;45526;-84
2023/10/10 01:53:05;;;;;;;;;12.33;10.67;;;;;20.67;58.42;101383.63;6092107;23;45510;-84
2023/10/10 01:55:31;;;;;;;;;15.67;10.00;;;;;20.64;58.62;101386.38;6066647;23;45353;-84
2023/10/10 01:57:57;;;;;;;;;17.33;15.33;;;;;20.66;58.48;101379.13;6067124;23;45285;-83
2023/10/10 02:00:26;;;;;;;;;15.67;11.67;;;;;20.64;58.45;101388.19;6093957;23;45359;-83
2023/10/10 02:02:53;;;;;;;;;13.67;13.33;;;;;20.65;58.79;101379.19;6092636;23;45763;-84
2023/10/10 02:08:03;;;;;;;;;13.00;11.67;;;;;20.54;58.82;101388.31;6092329;23;45520;-84
2023/10/10 02:10:32;;;;;;;;;15.67;11.00;;;;;20.52;58.88;101383.84;6066460;23;45334;-83
2023/10/10 02:13:47;;;;;;;;;2.67;1.67;;;;;20.76;58.71;101369.03;6122109;23;47680;-83
2023/10/10 02:16:14;;;;;;;;;12.00;11.67;;;;;20.46;59.17;101370.44;6152806;23;45711;-83
2023/10/10 02:18:44;;;;;;;;;14.67;11.33;;;;;20.43;59.45;101379.50;6152882;23;44862;-83
2023/10/10 02:21:16;;;;;;;;;12.33;12.33;;;;;20.37;59.30;101364.28;6155354;23;45423;-83
2023/10/10 02:23:46;;;;;;;;;15.00;15.00;;;;;20.32;59.72;101366.19;6159278;23;45415;-83
2023/10/10 02:26:20;;;;;;;;;11.00;11.00;;;;;20.32;59.34;101374.28;6184020;23;45193;-83
2023/10/10 02:28:49;;;;;;;;;10.00;10.00;;;;;20.31;59.84;101371.59;6156508;23;45429;-84
2023/10/10 02:31:16;;;;;;;;;15.67;12.67;;;;;20.35;59.95;101373.31;6157198;23;45433;-83
2023/10/10 02:39:56;;;;;;;;;13.67;13.33;;;;;20.13;60.06;101348.47;6185550;23;45371;-83
2023/10/10 02:42:23;;;;;;;;;12.33;10.33;;;;;20.13;60.31;101364.66;6183805;23;45475;-83
2023/10/10 02:44:57;;;;;;;;;13.67;12.67;;;;;20.10;60.77;101359.34;6159734;23;47302;-82
2023/10/10 02:47:36;;;;;;;;;11.33;11.33;;;;;20.06;60.53;101353.09;6160761;23;45321;-84
2023/10/10 02:50:38;;;;;;;;;14.67;12.67;;;;;20.10;60.89;101362.91;6157103;23;45443;-83
2023/10/10 02:53:03;;;;;;;;;12.00;11.00;;;;;20.03;60.81;101363.03;6182691;23;44947;-83
2023/10/10 02:55:33;;;;;;;;;11.67;11.67;;;;;20.00;61.10;101358.59;6181782;23;46052;-83
2023/10/10 02:57:59;;;;;;;;;12.33;12.33;;;;;20.05;61.07;101367.50;6183729;23;45370;-83
2023/10/10 03:03:46;;;;;;;;;15.67;12.00;;;;;20.27;60.76;101354.53;6182865;23;44721;-83
2023/10/10 03:06:12;;;;;;;;;14.67;13.00;;;;;19.95;61.38;101355.94;6157977;23;45157;-84
2023/10/10 03:08:51;;;;;;;;;14.00;13.00;;;;;19.91;61.39;101350.59;6186717;23;45155;-83
2023/10/10 03:11:35;;;;;;;;;15.33;15.33;;;;;19.95;61.43;101355.03;6185059;23;45408;-83
2023/10/10 03:14:07;;;;;;;;;14.00;14.00;;;;;19.94;61.69;101347.88;6185497;23;45306;-83
2023/10/10 03:16:44;;;;;;;;;15.00;11.33;;;;;19.98;61.72;101350.50;6157836;23;46898;-84
2023/10/10 03:27:10;;;;;;;;;15.00;14.33;;;;;19.94;62.05;101342.47;6155946;23;45366;-84
2023/10/10 03:29:49;;;;;;;;;14.33;14.00;;;;;19.98;61.70;101346.91;6155680;23;45742;-83
2023/10/10 03:32:46;;;;;;;;;14.00;12.67;;;;;20.01;61.75;101356.75;6128582;23;45263;-84
2023/10/10 03:35:33;;;;;;;;;17.67;15.33;;;;;20.00;62.07;101345.06;6129459;23;45352;-84
2023/10/10 03:38:24;;;;;;;;;14.33;13.00;;;;;20.04;61.82;101349.53;6127243;23;48480;-84
2023/10/10 03:41:25;;;;;;;;;14.00;14.00;;;;;19.99;61.85;101352.25;6154878;23;45349;-84
2023/10/10 05:25:59;;;;;;;;;16.67;16.00;;;;;19.63;63.99;101326.66;6183005;23;45440;-84
2023/10/10 05:28:29;;;;;;;;;15.33;15.33;;;;;19.55;63.82;101307.00;6158386;23;47067;-84
2023/10/10 05:31:04;;;;;;;;;14.00;14.00;;;;;19.53;64.11;101314.22;6184346;23;45331;-84
2023/10/10 05:33:57;;;;;;;;;16.33;16.33;;;;;19.53;63.68;101311.53;6156617;23;45763;-84
2023/10/10 15:59:51;;;;;;;;;;;;;;;;;;;;;
2023/10/10 16:23:21;;;;;;;;;;;;;;;;;;;;;
2023/10/10 16:37:34;;;;;;;;;;;;;;;;;;;;;
2023/10/10 16:55:18;;;;;;;;;14.33;13.33;;;;;27.47;41.56;101053.47;6066964;23;45299;-81
2023/10/10 16:57:44;;;;;;;;;15.00;13.67;;;;;27.38;41.58;101047.59;6124172;23;44771;-81
2023/10/10 17:01:04;;;;;;;;;;;;;;;;;;;;;
2023/10/10 17:04:09;;;;;;;;;12.33;12.33;;;;;27.45;41.86;101058.13;6064670;23;73038;-80
2023/10/10 17:06:35;;;;;;;;;11.33;9.67;;;;;27.17;42.60;101061.34;6007617;23;45591;-80
2023/10/10 17:09:00;;;;;;;;;17.33;13.00;;;;;26.94;42.58;101024.28;6010579;23;45338;-81
2023/10/10 17:11:27;;;;;;;;;15.33;15.33;;;;;26.98;42.74;101039.53;6010847;23;45730;-81
2023/10/10 17:13:55;;;;;;;;;15.67;14.00;;;;;27.17;42.74;101052.25;6010949;23;44822;-79
2023/10/10 17:16:28;;;;;;;;;13.33;12.67;;;;;26.99;42.83;101059.56;5986349;23;44906;-79
2023/10/10 17:22:17;;;;;;;;;11.67;11.33;;;;;26.74;43.07;101049.81;5951974;23;45024;-80
2023/10/10 17:24:43;;;;;;;;;9.33;9.33;;;;;26.67;43.01;101048.34;5952358;23;45273;-80
2023/10/10 17:27:09;;;;;;;;;11.67;11.00;;;;;26.65;43.23;101053.00;5975701;23;45301;-81
2023/10/10 17:29:57;;;;;;;;;12.00;12.00;;;;;26.59;43.62;101026.03;5953772;23;45362;-81
2023/10/10 17:32:22;;;;;;;;;14.00;10.00;;;;;26.52;43.84;101055.38;5952906;23;47556;-80
2023/10/10 17:34:48;;;;;;;;;10.33;10.00;;;;;26.50;44.04;101057.28;5960684;23;44825;-81
2023/10/10 17:37:13;;;;;;;;;8.67;8.67;;;;;26.37;43.95;101046.09;6010209;23;45348;-81
2023/10/10 17:39:41;;;;;;;;;8.67;8.67;;;;;26.53;44.03;101063.50;6024351;23;45537;-80
2023/10/10 17:42:07;;;;;;;;;8.67;8.67;;;;;26.33;43.94;101060.81;6068293;23;47314;-81
2023/10/10 17:44:37;;;;;;;;;11.33;10.33;;;;;26.43;43.89;101062.16;6094193;23;44669;-80
2023/10/10 17:47:03;;;;;;;;;10.00;10.00;;;;;26.14;44.10;101045.31;6094456;23;44872;-80
2023/10/10 17:49:31;;;;;;;;;11.00;11.00;;;;;26.14;43.94;101056.22;6071381;23;45438;-81
2023/10/10 17:51:58;;;;;;;;;7.67;7.00;;;;;26.10;44.36;101049.16;6071723;23;47280;-81
2023/10/10 17:54:30;;;;;;;;;10.00;10.00;;;;;26.27;43.80;101048.34;6071906;23;44728;-81
2023/10/10 17:56:56;;;;;;;;;8.00;8.00;;;;;26.01;44.59;101055.00;6071634;23;45774;-81
2023/10/10 17:59:22;;;;;;;;;14.67;11.33;;;;;25.97;44.39;101061.56;6145987;22;45271;-81
2023/10/10 18:01:48;;;;;;;;;10.33;10.00;;;;;25.91;44.95;101053.66;6216767;22;45426;-81
2023/10/10 18:04:14;;;;;;;;;9.33;9.00;;;;;25.90;44.67;101066.41;6218197;22;45287;-81
2023/10/10 18:06:40;;;;;;;;;11.67;8.33;;;;;25.88;44.78;101070.13;6189718;22;45123;-81
2023/10/10 18:09:16;;;;;;;;;10.33;10.33;;;;;25.80;44.49;101069.59;6189719;22;45592;-81
2023/10/10 18:11:42;;;;;;;;;9.67;9.67;;;;;25.74;44.73;101063.44;6218175;22;45395;-81
2023/10/10 18:14:07;;;;;;;;;7.67;6.67;;;;;25.74;44.73;101071.59;6216442;22;45365;-80
2023/10/10 18:16:34;;;;;;;;;11.33;9.00;;;;;25.69;44.64;101049.16;6220492;22;45359;-81
2023/10/10 18:19:00;;;;;;;;;10.33;9.67;;;;;25.67;44.86;101072.84;6191976;22;45482;-80
2023/10/10 18:21:25;;;;;;;;;9.33;9.00;;;;;25.63;45.29;101059.41;6192215;22;45498;-81
2023/10/10 18:23:52;;;;;;;;;10.67;9.00;;;;;25.68;44.78;101057.38;6191918;22;45713;-81
2023/10/10 18:26:22;;;;;;;;;9.67;9.67;;;;;25.63;44.91;101051.22;6220789;22;45318;-81
2023/10/10 18:28:51;;;;;;;;;8.33;8.00;;;;;25.56;44.69;101064.25;6220915;22;45210;-81
2023/10/10 18:31:29;;;;;;;;;9.67;7.00;;;;;25.71;44.55;101066.31;6194274;22;47042;-81
2023/10/10 18:33:55;;;;;;;;;10.00;7.00;;;;;25.44;45.01;101059.34;6194078;22;45345;-81
2023/10/10 18:36:22;;;;;;;;;10.00;8.00;;;;;25.46;44.71;101058.31;6217744;22;45358;-82
2023/10/10 18:38:49;;;;;;;;;10.67;9.00;;;;;25.42;44.54;101047.63;6219567;22;45312;-82
2023/10/10 18:41:22;;;;;;;;;10.33;8.33;;;;;25.58;44.41;101050.56;6192977;22;45183;-81
2023/10/10 18:43:54;;;;;;;;;7.67;7.00;;;;;25.39;44.39;101050.47;6219786;22;45488;-81
2023/10/10 18:46:24;;;;;;;;;9.67;7.67;;;;;25.39;44.11;101053.19;6219606;22;45273;-81
2023/10/10 18:48:49;;;;;;;;;13.00;10.67;;;;;25.30;44.15;101041.72;6192133;22;44985;-81
2023/10/10 18:51:18;;;;;;;;;7.33;7.33;;;;;25.41;43.86;101051.28;6218292;22;45123;-81
2023/10/10 18:53:48;;;;;;;;;8.00;7.00;;;;;25.44;43.30;101059.34;6213603;22;45333;-81
2023/10/10 18:56:14;;;;;;;;;9.00;8.67;;;;;25.34;43.57;101048.81;6189694;22;45395;-80
2023/10/10 18:58:39;;;;;;;;;8.00;7.33;;;;;25.35;43.12;101049.72;6218179;22;45416;-81
2023/10/10 19:01:21;;;;;;;;;7.67;7.67;;;;;25.55;43.21;101052.47;6189658;22;47105;-81
2023/10/10 19:03:48;;;;;;;;;12.67;10.00;;;;;25.34;43.37;101053.38;6217649;22;45677;-81
2023/10/10 19:06:18;;;;;;;;;10.67;9.00;;;;;25.30;43.03;101049.91;6217330;22;45314;-81
2023/10/10 19:08:45;;;;;;;;;12.00;7.67;;;;;25.31;43.35;101054.41;6215273;22;45173;-81
2023/10/10 19:11:16;;;;;;;;;11.67;9.67;;;;;25.44;43.43;101048.44;6213744;22;46758;-81
2023/10/10 19:13:48;;;;;;;;;8.67;8.67;;;;;25.23;43.47;101052.94;6190017;22;45304;-81
2023/10/10 19:16:15;;;;;;;;;5.67;5.67;;;;;25.18;43.30;101053.09;6217352;22;45486;-81
2023/10/10 19:18:40;;;;;;;;;8.67;6.67;;;;;25.19;43.08;101054.00;6215785;22;45285;-82
2023/10/10 19:21:15;;;;;;;;;7.67;7.67;;;;;25.37;42.91;101057.81;6214639;22;46614;-81
2023/10/10 19:23:41;;;;;;;;;9.67;7.67;;;;;25.16;43.17;101066.78;6214846;22;44786;-81
2023/10/10 19:26:08;;;;;;;;;7.00;6.67;;;;;25.10;43.21;101060.72;6219333;22;45498;-82
2023/10/10 19:28:34;;;;;;;;;9.67;9.67;;;;;25.04;43.30;101061.84;6191251;22;44733;-79
2023/10/10 19:30:59;;;;;;;;;9.67;9.33;;;;;25.07;42.98;101074.47;6215908;22;47101;-79
2023/10/10 19:33:25;;;;;;;;;11.00;10.00;;;;;25.09;43.29;101069.84;6190515;22;44960;-80
2023/10/10 19:35:52;;;;;;;;;10.00;10.00;;;;;25.05;43.45;101070.91;6189884;22;45202;-80
2023/10/10 19:38:25;;;;;;;;;10.67;10.67;;;;;25.02;43.58;101073.75;6219301;22;45319;-80
2023/10/10 19:41:03;;;;;;;;;16.33;13.00;;;;;25.00;43.68;101075.66;6217523;22;47168;-80
2023/10/10 19:43:28;;;;;;;;;10.33;10.33;;;;;24.98;43.79;101072.09;6217145;22;45693;-80
2023/10/10 19:45:55;;;;;;;;;11.67;11.33;;;;;24.93;43.63;101073.19;6217179;22;45381;-81
2023/10/10 19:48:27;;;;;;;;;12.67;12.00;;;;;24.82;43.97;101061.81;6214299;22;45399;-81
2023/10/10 19:50:56;;;;;;;;;12.00;10.67;;;;;24.83;43.93;101062.75;6216032;22;45545;-81
2023/10/10 19:53:28;;;;;;;;;12.00;11.67;;;;;24.83;44.03;101071.78;6216305;22;45361;-80
2023/10/10 19:55:53;;;;;;;;;8.67;8.67;;;;;24.69;44.16;101061.44;6194325;22;44845;-80
2023/10/10 19:58:20;;;;;;;;;13.00;11.00;;;;;24.74;44.38;101069.41;6221835;22;44773;-80
2023/10/10 20:00:46;;;;;;;;;9.00;9.00;;;;;24.62;44.33;101051.78;6193522;22;47111;-80
2023/10/10 20:03:14;;;;;;;;;12.67;11.00;;;;;24.72;44.07;101072.22;6220335;22;44686;-80
2023/10/10 20:05:41;;;;;;;;;10.00;9.00;;;;;24.74;44.55;101069.41;6220751;22;45278;-80
2023/10/10 20:08:12;;;;;;;;;8.00;7.67;;;;;24.65;44.26;101062.50;6193514;22;45455;-80
2023/10/10 20:10:38;;;;;;;;;7.67;7.67;;;;;24.61;44.50;101066.31;6216836;22;45508;-80
2023/10/10 20:13:08;;;;;;;;;12.33;10.33;;;;;24.62;44.42;101069.91;6216989;22;45393;-80
2023/10/10 20:15:39;;;;;;;;;11.33;11.00;;;;;24.70;44.46;101070.47;6216741;22;44984;-80
2023/10/10 20:18:08;;;;;;;;;10.33;10.33;;;;;24.60;44.07;101067.22;6216579;22;45062;-80
2023/10/10 20:20:34;;;;;;;;;9.33;9.00;;;;;24.63;44.34;101077.13;6218471;22;46334;-80
2023/10/10 20:23:00;;;;;;;;;10.33;10.33;;;;;24.53;44.20;101076.59;6217867;22;45360;-80
2023/10/10 20:25:29;;;;;;;;;6.33;6.33;;;;;24.60;44.28;101075.38;6217034;22;45250;-80
2023/10/10 20:27:59;;;;;;;;;13.67;8.00;;;;;24.60;43.89;101079.94;6218347;22;45478;-79
2023/10/10 20:30:29;;;;;;;;;9.00;9.00;;;;;24.54;43.85;101081.97;6192164;22;45431;-80
2023/10/10 20:32:55;;;;;;;;;9.67;9.00;;;;;24.53;43.68;101082.03;6218423;22;45223;-80
2023/10/10 20:35:24;;;;;;;;;11.33;9.00;;;;;24.57;44.02;101077.38;6218167;22;44879;-80
2023/10/10 20:37:58;;;;;;;;;8.33;8.33;;;;;24.70;43.95;101084.06;6192013;22;45421;-80
2023/10/10 20:40:29;;;;;;;;;8.33;6.00;;;;;24.58;43.68;101080.00;6216801;22;48137;-81
2023/10/10 20:42:58;;;;;;;;;10.00;8.00;;;;;24.55;43.75;101078.28;6192960;22;45210;-81
2023/10/10 20:45:26;;;;;;;;;10.67;9.00;;;;;24.51;44.04;101079.38;6221003;22;44749;-81
2023/10/10 20:47:52;;;;;;;;;10.33;9.33;;;;;24.48;43.80;101084.91;6219807;22;44799;-81
2023/10/10 20:50:28;;;;;;;;;10.00;10.00;;;;;24.47;44.17;101077.69;6189986;22;47198;-81
2023/10/10 20:52:59;;;;;;;;;10.67;10.67;;;;;24.57;43.79;101083.69;6190005;22;45329;-81
2023/10/10 20:55:25;;;;;;;;;9.33;8.00;;;;;24.37;43.98;101078.97;6217428;22;44810;-80
2023/10/10 20:57:55;;;;;;;;;11.67;11.67;;;;;24.40;44.01;101087.03;6193437;22;45304;-81
2023/10/10 21:00:22;;;;;;;;;9.33;8.33;;;;;24.40;43.90;101077.97;6193231;22;47219;-81
2023/10/10 21:02:52;;;;;;;;;14.00;10.33;;;;;24.38;44.07;101080.75;6218390;22;45410;-81
2023/10/10 21:05:21;;;;;;;;;10.33;8.33;;;;;24.42;44.24;101073.34;6220140;22;45250;-81
2023/10/10 21:07:48;;;;;;;;;9.33;8.00;;;;;24.34;44.22;101077.28;6221481;22;44736;-80
2023/10/10 21:10:17;;;;;;;;;9.00;9.00;;;;;24.32;44.20;101075.56;6218899;22;47121;-81
2023/10/10 21:12:43;;;;;;;;;10.67;9.00;;;;;24.25;44.30;101072.16;6217891;22;45809;-81
2023/10/10 21:15:15;;;;;;;;;10.00;10.00;;;;;24.32;44.25;101072.84;6218789;22;45387;-81
2023/10/10 21:17:48;;;;;;;;;11.33;9.00;;;;;24.35;44.33;101072.72;6216887;22;45433;-81
2023/10/10 21:20:16;;;;;;;;;10.67;10.33;;;;;24.22;44.67;101077.72;6218661;22;45158;-81
2023/10/10 21:22:43;;;;;;;;;13.67;11.67;;;;;24.17;44.55;101075.16;6218896;22;45336;-80
2023/10/10 21:25:10;;;;;;;;;10.67;7.00;;;;;24.17;44.55;101068.84;6220684;22;45179;-81
2023/10/10 21:27:37;;;;;;;;;10.33;10.00;;;;;24.15;44.19;101087.03;6193055;22;44933;-80
2023/10/10 21:30:05;;;;;;;;;10.33;9.00;;;;;24.13;44.34;101078.94;6220271;22;45401;-80
2023/10/10 21:32:31;;;;;;;;;10.67;10.67;;;;;24.07;44.55;101073.72;6221210;22;45261;-80
2023/10/10 21:34:57;;;;;;;;;13.67;12.00;;;;;24.01;44.54;101068.53;6221490;22;45393;-80
2023/10/10 21:37:23;;;;;;;;;11.00;10.00;;;;;24.00;45.00;101074.91;6217876;22;44815;-81
2023/10/10 21:39:49;;;;;;;;;9.67;9.67;;;;;23.96;45.07;101074.13;6193318;22;47113;-81
2023/10/10 21:42:15;;;;;;;;;10.33;9.00;;;;;23.95;44.85;101068.75;6219419;22;45249;-81
2023/10/10 21:44:41;;;;;;;;;8.67;8.67;;;;;23.96;45.13;101071.41;6220459;22;45268;-81
2023/10/10 21:47:07;;;;;;;;;7.00;7.00;;;;;23.89;44.97;101069.84;6194546;22;45689;-81
2023/10/10 21:49:39;;;;;;;;;10.33;8.00;;;;;23.87;45.11;101068.16;6220726;22;45442;-81
2023/10/10 21:52:09;;;;;;;;;9.00;9.00;;;;;23.87;44.70;101070.84;6217506;22;45392;-81
2023/10/10 21:57:56;;;;;;;;;11.33;8.67;;;;;23.81;44.93;101060.22;6218822;22;45699;-80
2023/10/10 22:01:09;;;;;;;;;11.33;9.67;;;;;23.83;44.87;101063.75;6219271;22;48026;-81
2023/10/10 22:03:09;;;;;;;;;9.33;9.00;;;;;23.76;45.18;101052.22;6207863;22;44857;-80
2023/10/10 22:05:37;;;;;;;;;10.33;10.33;;;;;23.85;45.33;101051.00;6219447;22;45313;-81
2023/10/10 22:08:06;;;;;;;;;8.00;5.67;;;;;23.85;44.88;101051.00;6221491;22;44829;-81
2023/10/10 22:10:33;;;;;;;;;9.33;8.00;;;;;23.81;45.07;101055.66;6220363;22;48003;-81
2023/10/10 22:13:00;;;;;;;;;9.67;8.33;;;;;23.73;44.99;101047.78;6218585;22;45472;-81
2023/10/10 22:15:26;;;;;;;;;12.00;12.00;;;;;23.80;45.10;101053.03;6219649;22;45330;-80
2023/10/10 22:17:55;;;;;;;;;13.67;9.67;;;;;23.82;45.06;101041.16;6218949;22;45321;-81
2023/10/10 22:23:42;;;;;;;;;11.33;10.00;;;;;23.77;45.69;101059.44;6219014;22;44819;-81
2023/10/10 22:26:08;;;;;;;;;17.67;13.00;;;;;23.76;45.91;101061.25;6214805;22;44702;-81
2023/10/10 22:28:38;;;;;;;;;10.67;10.67;;;;;23.71;45.64;101060.53;6217007;22;45341;-79
2023/10/10 22:31:12;;;;;;;;;8.67;7.67;;;;;23.89;45.25;101061.69;6191042;22;46919;-80
2023/10/10 22:33:38;;;;;;;;;9.00;9.00;;;;;23.71;45.82;101059.63;6216411;22;44737;-80
2023/10/10 22:36:18;;;;;;;;;11.00;11.00;;;;;23.87;45.61;101060.00;6214228;22;44769;-80
2023/10/10 22:38:45;;;;;;;;;12.00;10.67;;;;;23.68;46.19;101060.63;6215163;22;45523;-80
2023/10/10 22:41:14;;;;;;;;;10.67;10.67;;;;;23.80;45.53;101059.34;6215649;22;45322;-81
2023/10/10 22:43:40;;;;;;;;;11.67;8.33;;;;;23.60;45.93;101064.56;6214279;22;45528;-81
2023/10/10 22:49:30;;;;;;;;;9.00;9.00;;;;;23.51;46.00;101046.75;6216655;22;44773;-80
2023/10/10 22:51:57;;;;;;;;;13.00;10.33;;;;;23.54;46.56;101052.09;6218893;22;46387;-81
2023/10/10 22:54:24;;;;;;;;;8.00;7.67;;;;;23.55;46.35;101057.47;6188516;22;45231;-80
2023/10/10 22:56:49;;;;;;;;;11.67;10.00;;;;;23.53;46.62;101050.28;6212611;22;45332;-80
2023/10/10 22:59:15;;;;;;;;;11.00;8.67;;;;;23.48;46.66;101039.59;6187211;22;45325;-80
2023/10/10 23:01:45;;;;;;;;;12.67;11.67;;;;;23.66;46.73;101032.63;6213993;22;45605;-80
2023/10/10 23:04:13;;;;;;;;;12.67;11.33;;;;;23.52;46.42;101034.97;6211348;22;45347;-80
2023/10/10 23:06:39;;;;;;;;;11.00;8.33;;;;;23.46;46.29;101032.47;6212861;22;45723;-80
2023/10/10 23:09:07;;;;;;;;;9.00;9.00;;;;;23.38;46.73;101026.41;6216764;22;45304;-80
2023/10/10 23:11:34;;;;;;;;;10.33;10.00;;;;;23.48;46.91;101038.72;6217203;22;45419;-80
2023/10/10 23:14:07;;;;;;;;;10.00;10.00;;;;;23.47;46.15;101035.13;6214132;22;45539;-80
2023/10/10 23:16:32;;;;;;;;;12.00;10.67;;;;;23.47;46.64;101034.22;6213812;22;45473;-80
2023/10/10 23:18:57;;;;;;;;;9.00;8.00;;;;;23.47;45.98;101029.69;6218722;22;45382;-80
2023/10/10 23:21:23;;;;;;;;;11.33;10.00;;;;;23.42;46.56;101025.38;6217368;22;46481;-80
2023/10/10 23:23:48;;;;;;;;;9.00;9.00;;;;;23.44;46.87;101029.78;6215724;22;44815;-80
2023/10/10 23:26:20;;;;;;;;;12.67;9.67;;;;;23.55;46.79;101024.88;6192008;22;45413;-80
2023/10/10 23:28:48;;;;;;;;;11.33;11.00;;;;;23.52;47.03;101032.25;6217419;22;45800;-81
2023/10/10 23:31:15;;;;;;;;;11.67;9.33;;;;;23.32;46.93;101031.09;6215992;22;46786;-79
2023/10/10 23:33:41;;;;;;;;;10.00;8.33;;;;;23.36;46.99;101032.75;6215135;22;45430;-80
2023/10/10 23:36:06;;;;;;;;;9.33;8.67;;;;;23.31;46.98;101028.47;6215815;22;45686;-79
2023/10/10 23:38:32;;;;;;;;;11.67;10.00;;;;;23.30;46.87;101038.41;6192518;22;44792;-80
2023/10/10 23:40:59;;;;;;;;;11.00;9.00;;;;;23.27;47.30;101030.38;6191247;22;48345;-80
2023/10/10 23:43:26;;;;;;;;;10.00;9.00;;;;;23.21;47.26;101027.88;6220528;22;45782;-81
2023/10/10 23:45:56;;;;;;;;;9.67;9.67;;;;;23.16;47.35;101027.13;6219206;22;44914;-80
2023/10/10 23:48:28;;;;;;;;;10.67;10.00;;;;;23.18;47.39;101033.41;6215591;22;44769;-80
2023/10/10 23:50:54;;;;;;;;;11.33;11.33;;;;;23.13;47.46;101038.09;6218107;22;46003;-81
2023/10/10 23:53:21;;;;;;;;;10.67;8.33;;;;;23.11;47.25;101048.13;6219961;22;44797;-80
2023/10/10 23:55:58;;;;;;;;;8.67;8.67;;;;;23.31;47.17;101042.91;6216721;22;44729;-81
2023/10/10 23:58:24;;;;;;;;;10.33;10.00;;;;;23.09;47.56;101050.00;6191414;22;45665;-81
